Time;durP1;ratioP1;P1;durP2;ratioP2;P2;SDS_P1;SDS_P2;PMS_P1;PMS_P2;Temp;Humidity;BMP_temperature;BMP_pressure;BME280_temperature;BME280_humidity;BME280_pressure;Samples;Min_cycle;Max_cycle;Signal;HPM_P1;HPM_P2
2022/05/04 00:00:10;;;;;;;;;;;;;;;9.16;58.25;101867.38;5038327;28;20281;-76
2022/05/04 00:02:36;;;;;;;;;;;;;;;9.11;58.90;101869.13;5038213;28;19927;-76
2022/05/04 00:05:02;;;;;;;;;;;;;;;9.08;58.37;101863.94;5037734;28;19923;-76
2022/05/04 00:07:27;;;;;;;;;;;;;;;9.05;58.16;101869.16;5046130;28;20327;-76
2022/05/04 00:09:52;;;;;;;;;;;;;;;9.01;58.46;101864.84;5037577;28;19920;-77
2022/05/04 00:12:17;;;;;;;;;;;;;;;8.99;58.25;101871.75;5043016;28;19912;-77
2022/05/04 00:14:42;;;;;;;;;;;;;;;8.96;58.65;101868.28;5045184;28;19916;-77
2022/05/04 00:17:08;;;;;;;;;;;;;;;8.96;58.74;101865.69;5048416;28;19920;-76
2022/05/04 00:19:33;;;;;;;;;;;;;;;8.95;58.32;101866.56;5053619;28;20010;-77
2022/05/04 00:21:58;;;;;;;;;;;;;;;8.98;58.36;101867.44;5064955;28;19951;-77
2022/05/04 00:24:23;;;;;;;;;;;;;;;9.00;58.41;101876.09;5066953;28;19928;-77
2022/05/04 00:26:48;;;;;;;;;;;;;;;9.01;58.23;101868.28;5062979;28;19920;-77
2022/05/04 00:29:15;;;;;;;;;;;;;;;9.03;58.34;101873.47;5063238;28;19929;-76
2022/05/04 00:31:40;;;;;;;;;;;;;;;9.02;58.55;101875.19;5065760;28;19930;-77
2022/05/04 00:34:05;;;;;;;;;;;;;;;9.04;58.53;101873.47;5058492;28;19912;-76
2022/05/04 00:36:31;;;;;;;;;;;;;;;9.05;58.66;101875.19;5066309;28;20280;-77
2022/05/04 00:38:56;;;;;;;;;;;;;;;9.03;58.79;101871.72;5066534;28;20348;-76
2022/05/04 00:41:22;;;;;;;;;;;;;;;9.03;58.89;101866.53;5065855;28;20007;-77
2022/05/04 00:43:51;;;;;;;;;;;;;;;9.04;58.82;101867.44;5068052;28;20010;-77
2022/05/04 00:46:16;;;;;;;;;;;;;;;9.07;58.86;101877.78;5067835;28;19954;-77
2022/05/04 00:48:42;;;;;;;;;;;;;;;9.07;58.91;101867.38;5065523;28;19948;-76
2022/05/04 00:51:07;;;;;;;;;;;;;;;9.07;58.81;101867.38;5066425;28;20007;-76
2022/05/04 00:53:32;;;;;;;;;;;;;;;9.08;58.48;101863.94;5065718;28;19912;-76
2022/05/04 00:55:59;;;;;;;;;;;;;;;9.08;59.01;101863.94;5068911;28;19955;-77
2022/05/04 01:01:09;;;;;;;;;;;;;;;9.07;59.15;101854.41;5063523;28;19970;-76
2022/05/04 01:03:34;;;;;;;;;;;;;;;9.07;58.93;101857.00;5068924;28;19955;-76
2022/05/04 01:05:59;;;;;;;;;;;;;;;9.09;58.63;101850.09;5064391;28;19912;-76
2022/05/04 01:08:25;;;;;;;;;;;;;;;9.12;58.72;101855.28;5064345;28;19928;-76
2022/05/04 01:10:50;;;;;;;;;;;;;;;9.15;59.06;101857.88;5065016;28;19919;-77
2022/05/04 01:13:18;;;;;;;;;;;;;;;9.16;59.01;101856.13;5064664;28;19959;-76
2022/05/04 01:15:43;;;;;;;;;;;;;;;9.17;58.66;101858.72;5065087;28;19916;-76
2022/05/04 01:18:08;;;;;;;;;;;;;;;9.18;58.75;101850.06;5068589;28;20374;-76
2022/05/04 01:20:33;;;;;;;;;;;;;;;9.19;58.75;101856.09;5065304;28;19998;-76
2022/05/04 01:22:58;;;;;;;;;;;;;;;9.19;58.69;101856.09;5067925;28;19916;-76
2022/05/04 01:25:23;;;;;;;;;;;;;;;9.21;58.57;101860.44;5068166;28;19916;-76
2022/05/04 01:27:49;;;;;;;;;;;;;;;9.22;58.62;101849.16;5070767;28;19919;-76
2022/05/04 01:30:14;;;;;;;;;;;;;;;9.20;58.95;101853.53;5048240;28;20339;-77
2022/05/04 01:32:39;;;;;;;;;;;;;;;9.20;59.19;101857.84;5070313;28;20386;-77
2022/05/04 01:35:05;;;;;;;;;;;;;;;9.21;59.07;101860.44;5071231;28;20379;-76
2022/05/04 01:37:30;;;;;;;;;;;;;;;9.21;58.90;101855.25;5064359;28;19912;-76
2022/05/04 01:39:55;;;;;;;;;;;;;;;9.21;58.71;101846.59;5069454;28;19913;-76
2022/05/04 01:42:24;;;;;;;;;;;;;;;9.21;59.32;101852.66;5071541;28;20260;-76
2022/05/04 01:44:49;;;;;;;;;;;;;;;9.20;59.11;101852.66;5068677;28;20343;-76
2022/05/04 01:47:14;;;;;;;;;;;;;;;9.21;59.06;101850.06;5068224;28;19916;-76
2022/05/04 01:49:39;;;;;;;;;;;;;;;9.22;58.93;101856.09;5070945;28;19920;-76
2022/05/04 01:52:05;;;;;;;;;;;;;;;9.21;59.17;101855.25;5068236;28;19912;-77
2022/05/04 01:54:30;;;;;;;;;;;;;;;9.23;59.16;101857.84;5068457;28;19999;-76
2022/05/04 01:56:55;;;;;;;;;;;;;;;9.22;58.93;101856.94;5068465;28;19931;-76
2022/05/04 01:59:21;;;;;;;;;;;;;;;9.23;58.93;101850.03;5073444;28;19917;-77
2022/05/04 02:01:46;;;;;;;;;;;;;;;9.22;58.82;101851.75;5068970;28;19913;-77
2022/05/04 02:04:12;;;;;;;;;;;;;;;9.23;58.88;101853.50;5065704;28;19982;-77
2022/05/04 02:06:37;;;;;;;;;;;;;;;9.21;58.56;101847.47;5069243;28;19921;-76
2022/05/04 02:09:03;;;;;;;;;;;;;;;9.18;58.92;101847.47;5058198;28;20003;-76
2022/05/04 02:11:31;;;;;;;;;;;;;;;9.16;58.77;101854.41;5062236;28;19923;-76
2022/05/04 02:13:56;;;;;;;;;;;;;;;9.16;59.01;101851.81;5048280;28;19920;-77
2022/05/04 02:16:22;;;;;;;;;;;;;;;9.17;58.84;101853.53;5068248;28;19924;-76
2022/05/04 02:18:47;;;;;;;;;;;;;;;9.18;58.73;101850.06;5072228;28;20184;-76
2022/05/04 02:21:12;;;;;;;;;;;;;;;9.20;58.96;101852.66;5069179;28;19919;-77
2022/05/04 02:23:37;;;;;;;;;;;;;;;9.18;59.21;101855.25;5068463;28;19932;-76
2022/05/04 02:26:02;;;;;;;;;;;;;;;9.16;59.00;101851.81;5069769;28;20375;-76
2022/05/04 02:28:28;;;;;;;;;;;;;;;9.16;58.73;101848.31;5068411;28;20363;-76
2022/05/04 02:30:53;;;;;;;;;;;;;;;9.16;58.57;101838.81;5065798;28;19912;-77
2022/05/04 02:33:18;;;;;;;;;;;;;;;9.15;58.96;101836.22;5068740;28;20087;-77
2022/05/04 02:38:32;;;;;;;;;;;;;;;9.16;58.56;101838.81;5033175;28;20003;-77
2022/05/04 02:40:57;;;;;;;;;;;;;;;9.14;58.77;101831.91;5071429;28;19999;-76
2022/05/04 02:43:22;;;;;;;;;;;;;;;9.13;58.67;101837.97;5070716;28;19939;-76
2022/05/04 02:45:48;;;;;;;;;;;;;;;9.13;58.65;101838.81;5070767;28;19959;-76
2022/05/04 02:48:13;;;;;;;;;;;;;;;9.13;58.66;101844.03;5067878;28;19966;-77
2022/05/04 02:50:38;;;;;;;;;;;;;;;9.13;58.76;101835.38;5068576;28;19966;-76
2022/05/04 02:53:07;;;;;;;;;;;;;;;9.12;58.69;101834.50;5068404;28;20375;-76
2022/05/04 02:55:32;;;;;;;;;;;;;;;9.11;59.00;101833.66;5068766;28;19917;-76
2022/05/04 02:57:57;;;;;;;;;;;;;;;9.11;58.83;101831.06;5068651;28;20267;-76
2022/05/04 03:00:24;;;;;;;;;;;;;;;9.13;58.59;101825.00;5069268;28;19966;-76
2022/05/04 03:02:50;;;;;;;;;;;;;;;9.11;58.92;101830.19;5049591;28;20281;-76
2022/05/04 03:05:16;;;;;;;;;;;;;;;9.09;58.74;101834.50;5067476;28;19958;-76
2022/05/04 03:07:41;;;;;;;;;;;;;;;9.09;58.68;101827.59;5065657;28;20317;-77
2022/05/04 03:10:07;;;;;;;;;;;;;;;9.07;58.59;101826.75;5064684;28;19920;-77
2022/05/04 03:12:32;;;;;;;;;;;;;;;9.05;58.89;101825.88;5066933;28;20366;-76
2022/05/04 03:14:58;;;;;;;;;;;;;;;9.05;59.36;101827.63;5067480;28;19916;-76
2022/05/04 03:17:23;;;;;;;;;;;;;;;9.02;58.97;101818.09;5067158;28;19965;-77
2022/05/04 03:19:48;;;;;;;;;;;;;;;9.01;58.90;101820.72;5065429;28;20014;-76
2022/05/04 03:22:13;;;;;;;;;;;;;;;8.98;58.87;101818.13;5065169;28;20225;-76
2022/05/04 03:24:39;;;;;;;;;;;;;;;8.95;58.79;101824.19;5066960;28;19912;-76
2022/05/04 03:27:05;;;;;;;;;;;;;;;8.92;58.83;101817.25;5069630;28;19920;-76
2022/05/04 03:29:30;;;;;;;;;;;;;;;8.89;58.88;101814.66;5070172;28;20144;-76
2022/05/04 03:31:55;;;;;;;;;;;;;;;8.88;59.20;101814.69;5067016;28;19956;-76
2022/05/04 03:34:20;;;;;;;;;;;;;;;8.88;58.92;101812.94;5068629;28;20584;-76
2022/05/04 03:36:45;;;;;;;;;;;;;;;8.86;58.91;101811.22;5064609;28;20003;-76
2022/05/04 03:39:11;;;;;;;;;;;;;;;8.85;59.03;101807.78;5067440;28;20286;-76
2022/05/04 03:41:36;;;;;;;;;;;;;;;8.85;59.03;101814.69;5066513;28;19921;-76
2022/05/04 03:44:02;;;;;;;;;;;;;;;8.82;59.16;101810.38;5065423;28;19916;-76
2022/05/04 03:46:28;;;;;;;;;;;;;;;8.80;59.09;101818.16;5068140;28;20308;-76
2022/05/04 03:48:58;;;;;;;;;;;;;;;8.77;59.11;101815.59;5069018;28;19934;-76
2022/05/04 03:51:23;;;;;;;;;;;;;;;8.76;59.08;101820.75;5065614;28;19940;-76
2022/05/04 03:53:50;;;;;;;;;;;;;;;8.74;58.86;101812.13;5062102;28;19955;-77
2022/05/04 03:56:15;;;;;;;;;;;;;;;8.76;59.12;101815.56;5067218;28;19927;-76
2022/05/04 03:58:41;;;;;;;;;;;;;;;8.75;59.13;101819.03;5065616;28;19920;-76
2022/05/04 04:01:06;;;;;;;;;;;;;;;8.72;59.49;101817.31;5066540;28;19912;-77
2022/05/04 04:03:32;;;;;;;;;;;;;;;8.70;59.39;101820.81;5067728;28;20409;-76
2022/05/04 04:05:57;;;;;;;;;;;;;;;8.69;59.50;101813.88;5069524;28;19912;-76
2022/05/04 04:08:22;;;;;;;;;;;;;;;8.68;59.42;101822.53;5069570;28;19912;-76
2022/05/04 04:10:49;;;;;;;;;;;;;;;8.67;59.60;101815.63;5068636;28;19924;-76
2022/05/04 04:13:15;;;;;;;;;;;;;;;8.67;59.49;101813.88;5068111;28;19927;-76
2022/05/04 04:15:40;;;;;;;;;;;;;;;8.68;59.24;101818.19;5062214;28;20099;-76
2022/05/04 04:18:05;;;;;;;;;;;;;;;8.68;59.22;101818.19;5067242;28;20423;-76
2022/05/04 04:23:15;;;;;;;;;;;;;;;8.68;59.18;101822.53;5055687;28;19923;-76
2022/05/04 04:25:40;;;;;;;;;;;;;;;8.67;59.16;101816.47;5059776;28;19999;-76
2022/05/04 04:28:05;;;;;;;;;;;;;;;8.67;59.63;101820.81;5066491;28;19962;-76
2022/05/04 04:30:30;;;;;;;;;;;;;;;8.67;59.45;101820.81;5065973;28;19912;-76
2022/05/04 04:32:55;;;;;;;;;;;;;;;8.67;59.27;101818.19;5063820;28;20297;-76
2022/05/04 04:35:21;;;;;;;;;;;;;;;8.68;59.61;101819.94;5046714;28;20409;-76
2022/05/04 04:37:46;;;;;;;;;;;;;;;8.67;59.34;101820.81;5067140;28;19912;-76
2022/05/04 04:40:11;;;;;;;;;;;;;;;8.64;59.34;101816.47;5059814;28;19916;-76
2022/05/04 04:42:37;;;;;;;;;;;;;;;8.64;59.39;101821.66;5062123;28;19913;-76
2022/05/04 04:45:02;;;;;;;;;;;;;;;8.63;59.49;101819.91;5040454;28;19912;-77
2022/05/04 04:47:29;;;;;;;;;;;;;;;8.66;59.50;101827.69;5049080;28;20426;-76
2022/05/04 04:49:57;;;;;;;;;;;;;;;8.67;59.56;101828.59;5063305;28;19912;-77
2022/05/04 04:52:23;;;;;;;;;;;;;;;8.68;60.41;101827.72;5064268;28;19916;-76
2022/05/04 04:54:49;;;;;;;;;;;;;;;8.67;59.42;101828.59;5061986;28;20007;-77
2022/05/04 04:57:14;;;;;;;;;;;;;;;8.70;59.62;101828.59;5062709;28;20043;-76
2022/05/04 04:59:39;;;;;;;;;;;;;;;8.72;59.82;101835.47;5065714;28;20282;-76
2022/05/04 05:02:04;;;;;;;;;;;;;;;8.72;59.34;101834.59;5064610;28;19956;-76
2022/05/04 05:04:30;;;;;;;;;;;;;;;8.74;59.69;101831.16;5062455;28;20360;-76
2022/05/04 05:06:55;;;;;;;;;;;;;;;8.75;59.59;101832.88;5065053;28;19916;-76
2022/05/04 05:09:20;;;;;;;;;;;;;;;8.76;59.76;101837.22;5062230;28;19912;-76
2022/05/04 05:11:45;;;;;;;;;;;;;;;8.76;59.72;101825.94;5064211;28;20355;-76
2022/05/04 05:16:54;;;;;;;;;;;;;;;8.75;59.53;101829.41;5061154;28;21558;-76
2022/05/04 05:19:19;;;;;;;;;;;;;;;8.72;59.44;101830.28;5063991;28;19916;-75
2022/05/04 05:21:45;;;;;;;;;;;;;;;8.74;59.70;101827.69;5060438;28;20003;-76
2022/05/04 05:24:10;;;;;;;;;;;;;;;8.77;59.71;101832.88;5063686;28;20672;-76
2022/05/04 05:26:35;;;;;;;;;;;;;;;8.79;59.76;101831.13;5043865;28;19919;-76
2022/05/04 05:29:00;;;;;;;;;;;;;;;8.81;59.95;101834.59;5066815;28;20272;-76
2022/05/04 05:31:25;;;;;;;;;;;;;;;8.80;60.17;101838.06;5069031;28;19912;-76
2022/05/04 05:33:51;;;;;;;;;;;;;;;8.82;60.41;101831.13;5066718;28;19916;-76
2022/05/04 05:36:16;;;;;;;;;;;;;;;8.87;59.97;101829.41;5066510;28;19916;-76
2022/05/04 05:38:41;;;;;;;;;;;;;;;8.89;59.90;101832.84;5066280;28;20355;-76
2022/05/04 05:41:06;;;;;;;;;;;;;;;8.91;59.81;101831.09;5068545;28;19951;-76
2022/05/04 05:43:31;;;;;;;;;;;;;;;8.91;59.81;101835.44;5049914;28;20007;-76
2022/05/04 05:45:57;;;;;;;;;;;;;;;8.92;59.70;101832.84;5065264;28;20330;-76
2022/05/04 05:48:22;;;;;;;;;;;;;;;8.95;59.92;101832.81;5061911;28;20406;-76
2022/05/04 05:50:47;;;;;;;;;;;;;;;8.98;59.84;101828.50;5062564;28;19916;-76
2022/05/04 05:53:14;;;;;;;;;;;;;;;9.03;59.97;101832.81;5061356;28;19923;-76
2022/05/04 05:55:39;;;;;;;;;;;;;;;9.06;59.67;101834.50;5063617;28;19920;-76
2022/05/04 05:58:04;;;;;;;;;;;;;;;9.11;59.63;101843.16;5068147;28;19947;-77
2022/05/04 06:00:30;;;;;;;;;;;;;;;9.13;59.65;101833.63;5060377;28;19999;-76
2022/05/04 06:02:55;;;;;;;;;;;;;;;9.13;59.57;101836.22;5061363;28;19913;-76
2022/05/04 06:05:20;;;;;;;;;;;;;;;9.19;59.54;101840.53;5066723;28;20279;-76
2022/05/04 06:07:45;;;;;;;;;;;;;;;9.21;60.05;101839.69;5067197;28;20283;-76
2022/05/04 06:10:10;;;;;;;;;;;;;;;9.27;59.59;101834.44;5070829;28;19919;-76
2022/05/04 06:12:38;;;;;;;;;;;;;;;9.31;59.21;101839.63;5070114;28;19912;-76
2022/05/04 06:15:03;;;;;;;;;;;;;;;9.33;59.25;101837.88;5069777;28;19923;-76
2022/05/04 06:17:28;;;;;;;;;;;;;;;9.35;59.12;101837.00;5066547;28;19921;-76
2022/05/04 06:19:53;;;;;;;;;;;;;;;9.38;59.38;101841.34;5062473;28;19924;-76
2022/05/04 06:22:19;;;;;;;;;;;;;;;9.45;59.30;101849.97;5066053;28;20355;-76
2022/05/04 06:24:45;;;;;;;;;;;;;;;9.51;59.13;101853.38;5067062;28;20010;-76
2022/05/04 06:27:10;;;;;;;;;;;;;;;9.56;58.71;101861.16;5054792;28;19913;-76
2022/05/04 06:35:03;;;;;;;;;;;;;;;9.60;58.64;101857.66;5070792;28;20413;-76
2022/05/04 06:37:29;;;;;;;;;;;;;;;9.60;58.73;101855.06;5067959;28;20015;-76
2022/05/04 06:39:54;;;;;;;;;;;;;;;9.64;59.08;101855.91;5056542;28;20363;-76
2022/05/04 06:42:19;;;;;;;;;;;;;;;9.65;58.63;101857.63;5066921;28;19912;-76
2022/05/04 06:44:45;;;;;;;;;;;;;;;9.64;58.84;101855.91;5065209;28;20313;-76
2022/05/04 06:47:10;;;;;;;;;;;;;;;9.66;58.63;101856.78;5068044;28;19912;-76
2022/05/04 06:49:35;;;;;;;;;;;;;;;9.69;58.68;101859.34;5042861;28;20460;-77
2022/05/04 06:52:00;;;;;;;;;;;;;;;9.73;58.66;101858.47;5068673;28;20000;-76
2022/05/04 06:54:25;;;;;;;;;;;;;;;9.77;58.49;101861.91;5065021;28;20372;-76
2022/05/04 06:56:50;;;;;;;;;;;;;;;9.83;58.37;101865.34;5061551;28;19964;-77
2022/05/04 06:59:16;;;;;;;;;;;;;;;9.93;58.28;101865.25;5067906;28;20417;-76
2022/05/04 07:01:41;;;;;;;;;;;;;;;9.97;57.94;101864.38;5064866;28;19924;-76
2022/05/04 07:04:06;;;;;;;;;;;;;;;9.98;57.92;101863.50;5070969;28;20312;-76
2022/05/04 07:06:31;;;;;;;;;;;;;;;10.03;57.73;101862.59;5064547;28;19917;-76
2022/05/04 07:08:56;;;;;;;;;;;;;;;10.07;57.58;101853.06;5068164;28;20283;-76
2022/05/04 07:11:22;;;;;;;;;;;;;;;10.11;57.39;101853.88;5065812;28;19920;-76
2022/05/04 07:13:47;;;;;;;;;;;;;;;10.09;57.48;101851.28;5070359;28;20331;-76
2022/05/04 07:16:12;;;;;;;;;;;;;;;10.07;57.21;101846.97;5066015;28;19963;-76
2022/05/04 07:18:37;;;;;;;;;;;;;;;10.11;57.22;101853.88;5066753;28;19919;-76
2022/05/04 07:21:02;;;;;;;;;;;;;;;10.15;57.32;101858.19;5067751;28;19938;-76
2022/05/04 07:23:28;;;;;;;;;;;;;;;10.22;57.26;101851.22;5066052;28;19912;-76
2022/05/04 07:25:54;;;;;;;;;;;;;;;10.25;57.00;101852.03;5067690;28;19916;-76
2022/05/04 07:28:19;;;;;;;;;;;;;;;10.31;56.94;101856.31;5066824;28;19943;-76
2022/05/04 07:30:44;;;;;;;;;;;;;;;10.36;57.11;101844.16;5073163;28;20291;-76
2022/05/04 07:33:09;;;;;;;;;;;;;;;10.41;56.83;101847.63;5067643;28;19992;-76
2022/05/04 07:35:35;;;;;;;;;;;;;;;10.45;56.78;101853.66;5067955;28;20286;-76
2022/05/04 07:38:00;;;;;;;;;;;;;;;10.49;56.66;101852.75;5066928;28;20502;-76
2022/05/04 07:43:09;;;;;;;;;;;;;;;10.58;56.44;101849.19;5058551;28;19966;-77
2022/05/04 07:45:34;;;;;;;;;;;;;;;10.63;56.29;101852.59;5061841;28;19913;-76
2022/05/04 07:47:59;;;;;;;;;;;;;;;10.67;55.96;101853.44;5066965;28;19919;-77
2022/05/04 07:50:25;;;;;;;;;;;;;;;10.71;56.15;101852.53;5066832;28;19919;-77
2022/05/04 07:52:51;;;;;;;;;;;;;;;10.75;56.05;101846.41;5066686;28;19913;-76
2022/05/04 07:55:16;;;;;;;;;;;;;;;10.77;56.06;101853.31;5065806;28;19917;-76
2022/05/04 07:57:46;;;;;;;;;;;;;;;10.83;55.87;101860.22;5066365;28;19912;-76
2022/05/04 08:05:40;;;;;;;;;;;;;;;10.97;55.67;101851.41;5053428;28;19920;-76
2022/05/04 08:08:05;;;;;;;;;;;;;;;11.02;55.48;101854.78;5044618;28;19916;-76
2022/05/04 08:10:31;;;;;;;;;;;;;;;11.04;55.49;101859.13;5066732;28;19967;-76
2022/05/04 08:12:58;;;;;;;;;;;;;;;11.08;55.15;101858.22;5066490;28;19917;-76
2022/05/04 08:15:23;;;;;;;;;;;;;;;11.11;54.92;101853.81;5064672;28;20444;-76
2022/05/04 08:17:49;;;;;;;;;;;;;;;11.15;55.15;101860.72;5062317;28;19952;-77
2022/05/04 08:20:14;;;;;;;;;;;;;;;11.19;55.25;101859.81;5043160;28;19923;-77
2022/05/04 08:22:39;;;;;;;;;;;;;;;11.21;54.67;101858.91;5061247;28;19920;-78
2022/05/04 08:25:05;;;;;;;;;;;;;;;11.23;54.77;101854.53;5066458;28;19916;-77
2022/05/04 08:27:32;;;;;;;;;;;;;;;11.29;55.10;101857.97;5062059;28;19913;-77
2022/05/04 08:29:57;;;;;;;;;;;;;;;11.31;54.67;101856.22;5060840;28;19912;-77
2022/05/04 08:32:26;;;;;;;;;;;;;;;11.34;54.49;101849.22;5064520;28;19966;-76
2022/05/04 08:34:51;;;;;;;;;;;;;;;11.35;54.49;101845.72;5058760;28;20359;-77
2022/05/04 08:37:17;;;;;;;;;;;;;;;11.37;54.58;101846.56;5062896;28;20003;-78
2022/05/04 08:39:42;;;;;;;;;;;;;;;11.43;54.41;101844.78;5061666;28;19920;-77
2022/05/04 08:42:08;;;;;;;;;;;;;;;11.45;54.64;101848.19;5061624;28;19913;-77
2022/05/04 08:44:33;;;;;;;;;;;;;;;11.47;54.37;101856.84;5056722;28;20291;-77
2022/05/04 08:46:59;;;;;;;;;;;;;;;11.48;54.42;101848.16;5065299;28;19988;-78
2022/05/04 08:49:26;;;;;;;;;;;;;;;11.49;54.29;101847.28;5059708;28;19913;-78
2022/05/04 08:51:54;;;;;;;;;;;;;;;11.47;53.73;101846.44;5061211;28;19918;-77
2022/05/04 08:54:19;;;;;;;;;;;;;;;11.45;54.19;101841.25;5072144;28;19977;-77
2022/05/04 08:56:45;;;;;;;;;;;;;;;11.49;54.03;101839.47;5067281;28;20256;-77
2022/05/04 08:59:10;;;;;;;;;;;;;;;11.54;53.90;101843.72;5062883;28;20371;-77
2022/05/04 09:01:39;;;;;;;;;;;;;;;11.55;53.88;101849.81;5064181;28;20351;-78
2022/05/04 09:04:04;;;;;;;;;;;;;;;11.55;53.64;101847.22;5062685;28;19912;-78
2022/05/04 09:06:31;;;;;;;;;;;;;;;11.58;53.50;101843.69;5066898;28;19932;-78
2022/05/04 09:08:58;;;;;;;;;;;;;;;11.59;53.98;101846.28;5051912;28;20019;-78
2022/05/04 09:11:24;;;;;;;;;;;;;;;11.62;53.45;101843.63;5058962;28;20371;-77
2022/05/04 09:13:50;;;;;;;;;;;;;;;11.64;53.84;101843.63;5063492;28;19967;-77
2022/05/04 09:16:25;;;;;;;;;;;;;;;11.66;53.65;101853.13;5065656;28;20442;-78
2022/05/04 09:18:50;;;;;;;;;;;;;;;11.64;53.35;101847.06;5056235;28;19923;-78
2022/05/04 09:21:21;;;;;;;;;;;;;;;11.67;53.45;101836.59;5051859;28;19912;-77
2022/05/04 09:23:48;;;;;;;;;;;;;;;11.71;53.38;101828.75;5061222;28;19921;-76
2022/05/04 09:26:14;;;;;;;;;;;;;;;11.79;53.30;101832.09;5063774;28;19956;-77
2022/05/04 09:28:39;;;;;;;;;;;;;;;11.85;53.23;101829.41;5064409;28;20324;-77
2022/05/04 09:31:05;;;;;;;;;;;;;;;11.90;53.00;101830.19;5063750;28;19958;-78
2022/05/04 09:33:32;;;;;;;;;;;;;;;11.94;53.18;101831.88;5061559;28;19912;-77
2022/05/04 09:35:59;;;;;;;;;;;;;;;11.94;52.93;101824.06;5064543;28;19916;-77
2022/05/04 09:46:42;;;;;;;;;;;;;;;12.15;52.44;101832.44;5055633;28;19978;-77
2022/05/04 09:49:14;;;;;;;;;;;;;;;12.18;52.24;101835.00;5055356;28;20011;-77
2022/05/04 09:51:40;;;;;;;;;;;;;;;12.20;51.58;101830.63;5059318;28;20360;-77
2022/05/04 09:54:12;;;;;;;;;;;;;;;12.27;52.26;101833.97;5068658;28;19912;-77
2022/05/04 09:56:37;;;;;;;;;;;;;;;12.28;51.76;101825.28;5068247;28;19969;-77
2022/05/04 09:59:03;;;;;;;;;;;;;;;12.29;51.49;101820.03;5069942;28;19917;-80
2022/05/04 10:01:28;;;;;;;;;;;;;;;12.29;51.67;101822.66;5069175;28;19939;-77
2022/05/04 10:03:54;;;;;;;;;;;;;;;12.36;52.13;101820.78;5062940;28;19912;-77
2022/05/04 10:06:23;;;;;;;;;;;;;;;12.38;51.44;101823.34;5068701;28;19920;-78
2022/05/04 10:08:48;;;;;;;;;;;;;;;12.41;51.19;101820.69;5069415;28;19919;-78
2022/05/04 10:11:14;;;;;;;;;;;;;;;12.42;50.88;101819.81;5065256;28;19912;-76
2022/05/04 10:13:39;;;;;;;;;;;;;;;12.43;50.80;101818.94;5054251;28;20367;-77
2022/05/04 10:16:08;;;;;;;;;;;;;;;12.44;50.76;101820.66;5055492;28;19924;-77
2022/05/04 10:18:33;;;;;;;;;;;;;;;12.46;50.65;101811.06;5028595;28;20648;-77
2022/05/04 10:21:08;;;;;;;;;;;;;;;12.50;50.96;101815.31;5041455;28;19926;-77
2022/05/04 10:23:35;;;;;;;;;;;;;;;12.55;51.05;101821.31;5061795;28;19927;-77
2022/05/04 10:26:03;;;;;;;;;;;;;;;12.62;50.38;101810.75;5061556;28;20312;-78
2022/05/04 10:28:35;;;;;;;;;;;;;;;12.60;50.69;101811.66;5060434;28;20014;-77
2022/05/04 10:31:00;;;;;;;;;;;;;;;12.65;50.98;101814.16;5058140;28;19925;-78
2022/05/04 10:33:30;;;;;;;;;;;;;;;12.72;51.17;101812.31;5059310;28;19927;-78
2022/05/04 10:35:56;;;;;;;;;;;;;;;12.77;50.83;101807.88;5061385;28;19925;-77
2022/05/04 10:38:27;;;;;;;;;;;;;;;12.79;50.83;101816.53;5061739;28;19923;-77
2022/05/04 10:41:00;;;;;;;;;;;;;;;12.80;51.08;101813.03;5058893;28;19947;-79
2022/05/04 10:43:38;;;;;;;;;;;;;;;12.83;50.84;101804.25;5061965;28;19960;-77
2022/05/04 10:46:07;;;;;;;;;;;;;;;12.83;50.22;101805.09;5062868;28;19920;-76
2022/05/04 10:48:32;;;;;;;;;;;;;;;12.87;50.63;101806.78;5042397;28;19916;-78
2022/05/04 10:51:09;;;;;;;;;;;;;;;12.92;50.55;101800.59;5061557;28;19922;-75
2022/05/04 10:53:36;;;;;;;;;;;;;;;12.93;50.91;101804.94;5056918;28;19951;-77
2022/05/04 10:56:01;;;;;;;;;;;;;;;12.97;50.55;101798.78;5056101;28;19921;-78
2022/05/04 10:58:34;;;;;;;;;;;;;;;13.00;50.68;101804.78;5039751;28;19982;-78
2022/05/04 11:01:16;;;;;;;;;;;;;;;13.03;50.49;101796.91;5059006;28;19916;-81
2022/05/04 11:03:50;;;;;;;;;;;;;;;13.09;50.51;101802.84;5060023;28;19923;-77
2022/05/04 11:06:21;;;;;;;;;;;;;;;13.13;50.23;101799.31;5057741;28;20023;-77
2022/05/04 11:08:48;;;;;;;;;;;;;;;13.14;50.33;101796.66;5061748;28;19920;-77
2022/05/04 11:11:13;;;;;;;;;;;;;;;13.16;50.46;101794.84;5062866;28;19920;-77
2022/05/04 11:13:42;;;;;;;;;;;;;;;13.18;50.30;101793.06;5062361;28;19920;-77
2022/05/04 11:16:08;;;;;;;;;;;;;;;13.20;49.73;101795.69;5059165;28;19924;-77
2022/05/04 11:18:33;;;;;;;;;;;;;;;13.22;49.40;101788.66;5060112;28;19924;-77
2022/05/04 11:21:00;;;;;;;;;;;;;;;13.28;50.22;101798.13;5062967;28;19999;-77
2022/05/04 11:23:26;;;;;;;;;;;;;;;13.31;50.05;101778.00;5061421;28;20110;-77
2022/05/04 11:25:51;;;;;;;;;;;;;;;13.35;50.01;101773.56;5058432;28;19995;-77
2022/05/04 11:28:17;;;;;;;;;;;;;;;13.42;50.07;101776.91;5063306;28;19921;-77
2022/05/04 11:30:42;;;;;;;;;;;;;;;13.47;49.91;101778.56;5062775;28;19916;-77
2022/05/04 11:33:12;;;;;;;;;;;;;;;13.56;49.74;101779.22;5061653;28;19916;-77
2022/05/04 11:35:37;;;;;;;;;;;;;;;13.58;49.74;101777.44;5059886;28;20387;-77
2022/05/04 11:38:03;;;;;;;;;;;;;;;13.58;49.45;101770.44;5060859;28;20058;-77
2022/05/04 11:40:28;;;;;;;;;;;;;;;13.63;49.46;101778.19;5061818;28;19923;-77
2022/05/04 11:42:53;;;;;;;;;;;;;;;13.66;49.30;101772.91;5061328;28;19916;-78
2022/05/04 11:45:20;;;;;;;;;;;;;;;13.69;49.13;101762.34;5055797;28;20410;-77
2022/05/04 11:47:45;;;;;;;;;;;;;;;13.74;49.58;101770.09;5044382;28;19938;-77
2022/05/04 11:50:11;;;;;;;;;;;;;;;13.79;49.18;101771.72;5057354;28;20368;-77
2022/05/04 11:52:37;;;;;;;;;;;;;;;13.84;49.04;101765.47;5057762;28;20027;-77
2022/05/04 11:55:03;;;;;;;;;;;;;;;13.86;48.91;101761.06;5058525;28;20035;-77
2022/05/04 11:57:28;;;;;;;;;;;;;;;13.90;49.28;101754.88;5060303;28;20630;-77
2022/05/04 11:59:53;;;;;;;;;;;;;;;13.92;49.05;101753.94;5058737;28;19920;-77
2022/05/04 12:02:19;;;;;;;;;;;;;;;13.95;49.19;101758.25;5041031;28;19916;-77
2022/05/04 12:04:47;;;;;;;;;;;;;;;14.01;49.20;101754.63;5057788;28;20310;-77
2022/05/04 12:07:12;;;;;;;;;;;;;;;14.06;49.11;101750.97;5037255;28;19928;-77
2022/05/04 12:09:37;;;;;;;;;;;;;;;14.10;48.49;101750.00;5060708;28;19920;-77
2022/05/04 12:12:03;;;;;;;;;;;;;;;14.10;48.10;101738.66;5060870;28;19922;-77
2022/05/04 12:14:28;;;;;;;;;;;;;;;14.13;48.10;101754.28;5059646;28;19916;-77
2022/05/04 12:16:53;;;;;;;;;;;;;;;14.15;48.06;101739.41;5057382;28;19925;-77
2022/05/04 12:19:18;;;;;;;;;;;;;;;14.14;47.87;101731.63;5060588;28;19927;-77
2022/05/04 12:21:44;;;;;;;;;;;;;;;14.18;48.09;101734.09;5058508;28;19920;-78
2022/05/04 12:24:09;;;;;;;;;;;;;;;14.19;48.41;101738.44;5034254;28;19996;-77
2022/05/04 12:26:34;;;;;;;;;;;;;;;14.20;47.93;101731.44;5060980;28;20007;-77
2022/05/04 12:34:31;;;;;;;;;;;;;;;14.44;48.34;101734.28;5053549;28;20011;-78
2022/05/04 12:36:58;;;;;;;;;;;;;;;14.49;48.09;101728.03;5052094;28;20553;-79
2022/05/04 12:39:23;;;;;;;;;;;;;;;14.56;47.69;101739.19;5053578;28;19920;-78
2022/05/04 12:41:49;;;;;;;;;;;;;;;14.63;46.42;101732.00;5055734;28;19943;-78
2022/05/04 12:44:15;;;;;;;;;;;;;;;14.64;47.01;101737.22;5052574;28;20298;-78
2022/05/04 12:46:40;;;;;;;;;;;;;;;14.68;47.37;101730.16;5054475;28;19924;-77
2022/05/04 12:49:05;;;;;;;;;;;;;;;14.71;46.96;101728.28;5058464;28;19916;-76
2022/05/04 12:51:31;;;;;;;;;;;;;;;14.75;46.70;101728.22;5059995;28;20434;-77
2022/05/04 12:53:56;;;;;;;;;;;;;;;14.77;46.76;101723.78;5061218;28;19916;-77
2022/05/04 12:59:06;;;;;;;;;;;;;;;14.80;46.52;101718.47;5058839;28;20010;-78
2022/05/04 13:01:32;;;;;;;;;;;;;;;14.89;47.13;101723.41;5059785;28;20006;-78
2022/05/04 13:03:58;;;;;;;;;;;;;;;14.98;46.86;101724.91;5061266;28;20283;-77
2022/05/04 13:06:23;;;;;;;;;;;;;;;15.02;46.79;101723.91;5059179;28;19921;-77
2022/05/04 13:08:49;;;;;;;;;;;;;;;15.09;46.75;101721.97;5061250;28;19983;-78
2022/05/04 13:11:24;;;;;;;;;;;;;;;15.14;46.17;101720.91;5059886;28;20352;-77
2022/05/04 13:13:50;;;;;;;;;;;;;;;15.23;46.14;101724.16;5058827;28;20355;-79
2022/05/04 13:16:17;;;;;;;;;;;;;;;15.25;45.91;101725.81;5057792;28;19920;-78